ARG1877 SAWH-SABE
Flight info
| Callsign | ARG1877 |
|---|---|
| Flight time | 2h 54m |
| Altitude | 37000 |
| Route | GRA2B GRA UT662 SALVU/N0457F390 UT662 DIL UZ117 GBE GBE8R |
| Aircraft | B38M/M-B2B3D2D3O2S1T1/SB1 |
Departure
| Time | 2026-05-04 13:33 |
|---|---|
| Airport | Ushuaia - Malvinas Argentinas International Airport (SAWH) |
Arrival
| Time | 2026-05-04 16:28 |
|---|---|
| Airport | Aeroparque Jorge Newbery (SABE) |
| Time | Latitude | Longitude | Altitude | Speed | Heading |
|---|---|---|---|---|---|
| 2026-05-04 13:12 | -54.84029 | -68.31253 | 85 ft | 0 kts | 20° |
| 2026-05-04 13:27 | -54.84035 | -68.31257 | 90 ft | 4 kts | 19° |
| 2026-05-04 13:28 | -54.84052 | -68.31266 | 89 ft | 4 kts | 12° |
| 2026-05-04 13:28 | -54.84078 | -68.31270 | 88 ft | 4 kts | 348° |
| 2026-05-04 13:28 | -54.84095 | -68.31252 | 86 ft | 4 kts | 279° |
| 2026-05-04 13:28 | -54.84095 | -68.31217 | 89 ft | 4 kts | 268° |
| 2026-05-04 13:29 | -54.84094 | -68.31177 | 89 ft | 1 kts | 267° |
| 2026-05-04 13:31 | -54.84094 | -68.31186 | 88 ft | 3 kts | 267° |
| 2026-05-04 13:32 | -54.84104 | -68.31289 | 87 ft | 12 kts | 239° |
| 2026-05-04 13:32 | -54.84192 | -68.31321 | 88 ft | 14 kts | 176° |
| 2026-05-04 13:32 | -54.84297 | -68.31313 | 87 ft | 16 kts | 182° |
| 2026-05-04 13:32 | -54.84388 | -68.31278 | 91 ft | 12 kts | 120° |
| 2026-05-04 13:33 | -54.84380 | -68.30948 | 88 ft | 61 kts | 87° |
| 2026-05-04 13:33 | -54.84335 | -68.29722 | 87 ft | 139 kts | 85° |
| 2026-05-04 13:33 | -54.84262 | -68.27762 | 365 ft | 173 kts | 88° |
| 2026-05-04 13:33 | -54.84210 | -68.25650 | 1215 ft | 178 kts | 93° |
| 2026-05-04 13:34 | -54.84529 | -68.23483 | 1754 ft | 199 kts | 118° |
| 2026-05-04 13:34 | -54.85189 | -68.21224 | 2418 ft | 223 kts | 110° |
| 2026-05-04 13:34 | -54.85634 | -68.18604 | 3412 ft | 231 kts | 107° |
| 2026-05-04 13:34 | -54.86092 | -68.15840 | 4355 ft | 245 kts | 106° |
| 2026-05-04 13:35 | -54.86581 | -68.12942 | 5346 ft | 254 kts | 106° |
| 2026-05-04 13:35 | -54.87608 | -68.06922 | 7371 ft | 265 kts | 107° |
| 2026-05-04 13:35 | -54.88140 | -68.03816 | 8374 ft | 271 kts | 107° |
| 2026-05-04 13:36 | -54.88682 | -68.00653 | 9361 ft | 276 kts | 107° |
| 2026-05-04 13:36 | -54.89236 | -67.97415 | 10246 ft | 282 kts | 107° |
| 2026-05-04 13:36 | -54.89671 | -67.93996 | 10824 ft | 299 kts | 92° |
| 2026-05-04 13:36 | -54.89307 | -67.90379 | 11458 ft | 313 kts | 66° |
| 2026-05-04 13:37 | -54.88055 | -67.87241 | 12145 ft | 326 kts | 44° |
| 2026-05-04 13:37 | -54.86184 | -67.85015 | 12842 ft | 336 kts | 31° |
| 2026-05-04 13:37 | -54.84160 | -67.82880 | 13563 ft | 344 kts | 32° |
| 2026-05-04 13:37 | -54.82109 | -67.80690 | 14255 ft | 349 kts | 32° |
| 2026-05-04 13:38 | -54.80020 | -67.78461 | 14958 ft | 355 kts | 32° |
| 2026-05-04 13:38 | -54.77825 | -67.76458 | 15639 ft | 360 kts | 17° |
| 2026-05-04 13:38 | -54.75342 | -67.75784 | 16248 ft | 364 kts | 359° |
| 2026-05-04 13:38 | -54.72784 | -67.75731 | 16872 ft | 371 kts | 359° |
| 2026-05-04 13:39 | -54.70187 | -67.75674 | 17539 ft | 375 kts | 358° |
| 2026-05-04 13:39 | -54.67559 | -67.75630 | 18138 ft | 379 kts | 358° |
| 2026-05-04 13:39 | -54.64907 | -67.75591 | 18742 ft | 382 kts | 358° |
| 2026-05-04 13:39 | -54.62249 | -67.75556 | 19328 ft | 386 kts | 358° |
| 2026-05-04 13:40 | -54.59558 | -67.75522 | 19908 ft | 389 kts | 359° |
| 2026-05-04 13:40 | -54.56837 | -67.75489 | 20483 ft | 392 kts | 359° |
| 2026-05-04 13:40 | -54.54098 | -67.75456 | 21048 ft | 395 kts | 359° |
| 2026-05-04 13:40 | -54.51332 | -67.75424 | 21607 ft | 399 kts | 359° |
| 2026-05-04 13:41 | -54.48548 | -67.75391 | 22171 ft | 402 kts | 359° |
| 2026-05-04 13:41 | -54.45739 | -67.75359 | 22733 ft | 405 kts | 360° |
| 2026-05-04 13:41 | -54.42914 | -67.75326 | 23212 ft | 408 kts | 360° |
| 2026-05-04 13:42 | -54.37245 | -67.75261 | 24122 ft | 413 kts | 360° |
| 2026-05-04 13:42 | -54.34360 | -67.75228 | 24566 ft | 416 kts | 360° |
| 2026-05-04 13:42 | -54.31459 | -67.75195 | 25002 ft | 418 kts | 360° |
| 2026-05-04 13:42 | -54.28539 | -67.75162 | 25432 ft | 421 kts | 360° |
| 2026-05-04 13:43 | -54.25601 | -67.75128 | 25849 ft | 423 kts | 360° |
| 2026-05-04 13:43 | -54.22648 | -67.75094 | 26265 ft | 426 kts | 0° |
| 2026-05-04 13:43 | -54.19680 | -67.75060 | 26727 ft | 427 kts | 0° |
| 2026-05-04 13:43 | -54.16696 | -67.75026 | 27119 ft | 430 kts | 0° |
| 2026-05-04 13:44 | -54.13706 | -67.74992 | 27492 ft | 433 kts | 0° |
| 2026-05-04 13:44 | -54.10687 | -67.74958 | 27896 ft | 435 kts | 0° |
| 2026-05-04 13:44 | -54.07650 | -67.74923 | 28271 ft | 438 kts | 0° |
| 2026-05-04 13:44 | -54.04597 | -67.74888 | 28641 ft | 440 kts | 0° |
| 2026-05-04 13:45 | -54.01525 | -67.74854 | 29005 ft | 442 kts | 0° |
| 2026-05-04 13:45 | -53.98432 | -67.74819 | 29365 ft | 445 kts | 0° |
| 2026-05-04 13:45 | -53.95331 | -67.74783 | 29677 ft | 447 kts | 0° |
| 2026-05-04 13:45 | -53.92207 | -67.74748 | 29976 ft | 449 kts | 360° |
| 2026-05-04 13:46 | -53.89084 | -67.74713 | 30273 ft | 451 kts | 360° |
| 2026-05-04 13:46 | -53.85943 | -67.74678 | 30569 ft | 453 kts | 360° |
| 2026-05-04 13:46 | -53.82823 | -67.74643 | 30851 ft | 455 kts | 360° |
| 2026-05-04 13:46 | -53.79655 | -67.74523 | 31121 ft | 457 kts | 6° |
| 2026-05-04 13:47 | -53.76573 | -67.73264 | 31432 ft | 458 kts | 22° |
| 2026-05-04 13:47 | -53.73709 | -67.70876 | 31667 ft | 460 kts | 27° |
| 2026-05-04 13:47 | -53.70860 | -67.68358 | 31892 ft | 463 kts | 28° |
| 2026-05-04 13:47 | -53.68015 | -67.65801 | 32172 ft | 465 kts | 28° |
| 2026-05-04 13:48 | -53.65178 | -67.63222 | 32506 ft | 465 kts | 28° |
| 2026-05-04 13:48 | -53.62328 | -67.60621 | 32785 ft | 467 kts | 28° |
| 2026-05-04 13:48 | -53.59483 | -67.58020 | 33176 ft | 465 kts | 28° |
| 2026-05-04 13:48 | -53.56630 | -67.55417 | 33436 ft | 466 kts | 28° |
| 2026-05-04 13:49 | -53.53768 | -67.52809 | 33640 ft | 468 kts | 28° |
| 2026-05-04 13:49 | -53.50908 | -67.50206 | 33958 ft | 467 kts | 28° |
| 2026-05-04 13:49 | -53.48056 | -67.47615 | 34275 ft | 466 kts | 28° |
| 2026-05-04 13:49 | -53.45195 | -67.45020 | 34456 ft | 468 kts | 27° |
| 2026-05-04 13:50 | -53.42334 | -67.42428 | 34681 ft | 469 kts | 28° |
| 2026-05-04 13:50 | -53.39469 | -67.39836 | 34971 ft | 468 kts | 27° |
| 2026-05-04 13:50 | -53.36597 | -67.37244 | 35242 ft | 468 kts | 27° |
| 2026-05-04 13:50 | -53.33720 | -67.34651 | 35456 ft | 469 kts | 27° |
| 2026-05-04 13:51 | -53.30849 | -67.32066 | 35720 ft | 469 kts | 27° |
| 2026-05-04 13:51 | -53.27972 | -67.29481 | 36015 ft | 468 kts | 27° |
| 2026-05-04 13:51 | -53.25100 | -67.26904 | 36242 ft | 469 kts | 27° |
| 2026-05-04 13:51 | -53.22257 | -67.24356 | 36404 ft | 470 kts | 27° |
| 2026-05-04 13:52 | -53.13635 | -67.16653 | 36385 ft | 468 kts | 27° |
| 2026-05-04 13:53 | -53.07881 | -67.11533 | 36385 ft | 468 kts | 27° |
| 2026-05-04 13:53 | -53.02128 | -67.06430 | 36375 ft | 468 kts | 26° |
| 2026-05-04 13:54 | -52.93490 | -66.98795 | 36385 ft | 470 kts | 26° |
| 2026-05-04 13:55 | -52.84838 | -66.91179 | 36386 ft | 470 kts | 26° |
| 2026-05-04 13:55 | -52.76240 | -66.83607 | 36382 ft | 469 kts | 26° |
| 2026-05-04 13:56 | -52.70468 | -66.78541 | 36380 ft | 469 kts | 26° |
| 2026-05-04 13:57 | -52.61791 | -66.70954 | 36374 ft | 470 kts | 26° |
| 2026-05-04 13:58 | -52.50233 | -66.60902 | 36374 ft | 470 kts | 26° |
| 2026-05-04 13:58 | -52.41548 | -66.53388 | 36373 ft | 470 kts | 26° |
| 2026-05-04 13:59 | -52.35792 | -66.48427 | 36356 ft | 470 kts | 25° |
| 2026-05-04 14:00 | -52.27094 | -66.40957 | 36363 ft | 470 kts | 25° |
| 2026-05-04 14:00 | -52.18433 | -66.33553 | 36368 ft | 471 kts | 25° |
| 2026-05-04 14:01 | -52.12630 | -66.28610 | 36360 ft | 470 kts | 25° |
| 2026-05-04 14:02 | -52.03928 | -66.21226 | 36353 ft | 471 kts | 25° |
| 2026-05-04 14:02 | -51.98106 | -66.16303 | 36357 ft | 472 kts | 25° |
| 2026-05-04 14:03 | -51.92269 | -66.11382 | 36348 ft | 472 kts | 25° |
| 2026-05-04 14:03 | -51.86457 | -66.06496 | 36353 ft | 472 kts | 25° |
| 2026-05-04 14:04 | -51.77681 | -65.99437 | 36353 ft | 469 kts | 17° |
| 2026-05-04 14:04 | -51.71562 | -65.95728 | 36348 ft | 471 kts | 18° |
| 2026-05-04 14:05 | -51.62363 | -65.90195 | 36346 ft | 471 kts | 18° |
| 2026-05-04 14:06 | -51.56225 | -65.86519 | 36348 ft | 471 kts | 18° |
| 2026-05-04 14:06 | -51.50073 | -65.82846 | 36354 ft | 471 kts | 18° |
| 2026-05-04 14:07 | -51.43928 | -65.79188 | 36331 ft | 471 kts | 18° |
| 2026-05-04 14:07 | -51.37786 | -65.75541 | 36341 ft | 471 kts | 18° |
| 2026-05-04 14:08 | -51.31666 | -65.71918 | 36343 ft | 471 kts | 18° |
| 2026-05-04 14:08 | -51.25519 | -65.68289 | 36340 ft | 471 kts | 18° |
| 2026-05-04 14:09 | -51.16309 | -65.62872 | 36346 ft | 471 kts | 17° |
| 2026-05-04 14:10 | -51.07080 | -65.57467 | 36339 ft | 471 kts | 17° |
| 2026-05-04 14:10 | -51.00915 | -65.53868 | 36339 ft | 471 kts | 17° |
| 2026-05-04 14:11 | -50.94759 | -65.50286 | 36334 ft | 471 kts | 17° |
| 2026-05-04 14:11 | -50.86550 | -65.45524 | 36337 ft | 471 kts | 17° |
| 2026-05-04 14:12 | -50.79397 | -65.41390 | 36325 ft | 471 kts | 17° |
| 2026-05-04 14:13 | -50.71158 | -65.36645 | 36338 ft | 472 kts | 17° |
| 2026-05-04 14:13 | -50.65030 | -65.33126 | 36334 ft | 472 kts | 17° |
| 2026-05-04 14:14 | -50.58860 | -65.29594 | 36334 ft | 472 kts | 17° |
| 2026-05-04 14:14 | -50.49592 | -65.24307 | 36331 ft | 472 kts | 17° |
| 2026-05-04 14:15 | -50.37250 | -65.17300 | 36329 ft | 473 kts | 16° |
| 2026-05-04 14:16 | -50.27972 | -65.12057 | 36314 ft | 472 kts | 16° |
| 2026-05-04 14:17 | -50.18690 | -65.06835 | 36333 ft | 473 kts | 16° |
| 2026-05-04 14:18 | -50.09437 | -65.01650 | 36339 ft | 473 kts | 16° |
| 2026-05-04 14:19 | -49.97028 | -64.94731 | 36338 ft | 474 kts | 15° |
| 2026-05-04 14:19 | -49.90816 | -64.91281 | 36340 ft | 474 kts | 15° |
| 2026-05-04 14:20 | -49.84606 | -64.87842 | 36345 ft | 474 kts | 15° |
| 2026-05-04 14:20 | -49.78394 | -64.84410 | 36344 ft | 474 kts | 15° |
| 2026-05-04 14:21 | -49.69114 | -64.79303 | 36341 ft | 474 kts | 15° |
| 2026-05-04 14:21 | -49.62892 | -64.75889 | 36349 ft | 474 kts | 15° |
| 2026-05-04 14:22 | -49.56667 | -64.72484 | 36346 ft | 474 kts | 15° |
| 2026-05-04 14:22 | -49.50453 | -64.69094 | 36353 ft | 474 kts | 15° |
| 2026-05-04 14:23 | -49.41156 | -64.64038 | 36348 ft | 474 kts | 15° |
| 2026-05-04 14:24 | -49.34922 | -64.60660 | 36354 ft | 475 kts | 15° |
| 2026-05-04 14:24 | -49.28703 | -64.57298 | 36356 ft | 475 kts | 15° |
| 2026-05-04 14:25 | -49.22460 | -64.53933 | 36363 ft | 475 kts | 15° |
| 2026-05-04 14:25 | -49.13143 | -64.48928 | 36365 ft | 475 kts | 14° |
| 2026-05-04 14:26 | -49.06914 | -64.45592 | 36348 ft | 475 kts | 14° |
| 2026-05-04 14:26 | -49.00664 | -64.42255 | 36363 ft | 476 kts | 14° |
| 2026-05-04 14:27 | -48.94417 | -64.38927 | 36370 ft | 475 kts | 14° |
| 2026-05-04 14:27 | -48.88169 | -64.35609 | 36348 ft | 475 kts | 14° |
| 2026-05-04 14:28 | -48.81934 | -64.32305 | 36364 ft | 476 kts | 14° |
| 2026-05-04 14:28 | -48.75685 | -64.29003 | 36360 ft | 476 kts | 14° |
| 2026-05-04 14:29 | -48.63156 | -64.22409 | 36373 ft | 476 kts | 14° |
| 2026-05-04 14:30 | -48.56910 | -64.19133 | 36367 ft | 477 kts | 14° |
| 2026-05-04 14:31 | -48.47546 | -64.14238 | 36379 ft | 476 kts | 14° |
| 2026-05-04 14:32 | -48.35016 | -64.07717 | 36375 ft | 477 kts | 14° |
| 2026-05-04 14:32 | -48.28743 | -64.04465 | 36383 ft | 478 kts | 13° |
| 2026-05-04 14:33 | -48.22441 | -64.01217 | 36379 ft | 478 kts | 13° |
| 2026-05-04 14:33 | -48.16151 | -63.97977 | 36375 ft | 478 kts | 13° |
| 2026-05-04 14:34 | -48.09867 | -63.94747 | 36384 ft | 478 kts | 13° |
| 2026-05-04 14:34 | -48.03617 | -63.91543 | 36378 ft | 478 kts | 13° |
| 2026-05-04 14:35 | -47.97325 | -63.88325 | 36384 ft | 478 kts | 13° |
| 2026-05-04 14:35 | -47.91033 | -63.85116 | 36390 ft | 478 kts | 13° |
| 2026-05-04 14:36 | -47.84751 | -63.81921 | 36383 ft | 478 kts | 13° |
| 2026-05-04 14:36 | -47.78455 | -63.78727 | 36370 ft | 478 kts | 13° |
| 2026-05-04 14:37 | -47.72143 | -63.75532 | 36394 ft | 479 kts | 13° |
| 2026-05-04 14:37 | -47.65830 | -63.72345 | 36395 ft | 479 kts | 13° |
| 2026-05-04 14:38 | -47.59528 | -63.69172 | 36400 ft | 479 kts | 13° |
| 2026-05-04 14:38 | -47.53210 | -63.65998 | 36376 ft | 479 kts | 12° |
| 2026-05-04 14:39 | -47.46936 | -63.62856 | 36403 ft | 480 kts | 12° |
| 2026-05-04 14:39 | -47.40612 | -63.59696 | 36403 ft | 480 kts | 12° |
| 2026-05-04 14:40 | -47.31122 | -63.54968 | 36407 ft | 480 kts | 12° |
| 2026-05-04 14:40 | -47.24788 | -63.51824 | 36403 ft | 479 kts | 11° |
| 2026-05-04 14:41 | -47.18481 | -63.48700 | 36403 ft | 478 kts | 11° |
| 2026-05-04 14:42 | -47.05832 | -63.42458 | 36423 ft | 480 kts | 11° |
| 2026-05-04 14:42 | -46.99504 | -63.39348 | 36402 ft | 480 kts | 11° |
| 2026-05-04 14:43 | -46.93181 | -63.36247 | 36429 ft | 480 kts | 11° |
| 2026-05-04 14:43 | -46.86879 | -63.33165 | 36421 ft | 481 kts | 11° |
| 2026-05-04 14:44 | -46.80517 | -63.30061 | 36435 ft | 482 kts | 11° |
| 2026-05-04 14:44 | -46.74157 | -63.26966 | 36418 ft | 482 kts | 11° |
| 2026-05-04 14:45 | -46.67801 | -63.23879 | 36441 ft | 482 kts | 11° |
| 2026-05-04 14:45 | -46.61429 | -63.20794 | 36451 ft | 482 kts | 11° |
| 2026-05-04 14:46 | -46.55057 | -63.17716 | 36446 ft | 484 kts | 10° |
| 2026-05-04 14:46 | -46.48653 | -63.14630 | 36425 ft | 484 kts | 10° |
| 2026-05-04 14:47 | -46.42319 | -63.11585 | 36454 ft | 483 kts | 10° |
| 2026-05-04 14:47 | -46.35935 | -63.08524 | 36456 ft | 483 kts | 10° |
| 2026-05-04 14:48 | -46.29551 | -63.05470 | 36465 ft | 483 kts | 10° |
| 2026-05-04 14:48 | -46.23163 | -63.02423 | 36453 ft | 485 kts | 9° |
| 2026-05-04 14:49 | -46.16765 | -62.99377 | 36469 ft | 483 kts | 9° |
| 2026-05-04 14:49 | -46.10376 | -62.96343 | 36476 ft | 483 kts | 9° |
| 2026-05-04 14:50 | -46.03989 | -62.93318 | 36484 ft | 483 kts | 9° |
| 2026-05-04 14:50 | -45.97653 | -62.90324 | 36448 ft | 483 kts | 9° |
| 2026-05-04 14:51 | -45.91271 | -62.87316 | 36497 ft | 482 kts | 9° |
| 2026-05-04 14:51 | -45.84896 | -62.84318 | 36492 ft | 482 kts | 9° |
| 2026-05-04 14:52 | -45.78519 | -62.81327 | 36495 ft | 482 kts | 9° |
| 2026-05-04 14:52 | -45.72155 | -62.78349 | 36472 ft | 482 kts | 9° |
| 2026-05-04 14:53 | -45.65788 | -62.75377 | 36496 ft | 482 kts | 9° |
| 2026-05-04 14:53 | -45.59389 | -62.72396 | 36497 ft | 483 kts | 9° |
| 2026-05-04 14:54 | -45.53004 | -62.69430 | 36507 ft | 482 kts | 8° |
| 2026-05-04 14:54 | -45.46632 | -62.66476 | 36505 ft | 482 kts | 8° |
| 2026-05-04 14:55 | -45.40250 | -62.63525 | 36515 ft | 482 kts | 8° |
| 2026-05-04 14:55 | -45.33895 | -62.60594 | 36521 ft | 485 kts | 8° |
| 2026-05-04 14:56 | -45.27484 | -62.57642 | 36518 ft | 485 kts | 8° |
| 2026-05-04 14:56 | -45.21070 | -62.54696 | 36510 ft | 484 kts | 8° |
| 2026-05-04 14:57 | -45.14662 | -62.51759 | 36522 ft | 483 kts | 8° |
| 2026-05-04 14:57 | -45.08255 | -62.48830 | 36531 ft | 483 kts | 8° |
| 2026-05-04 14:58 | -45.01861 | -62.45919 | 36540 ft | 483 kts | 8° |
| 2026-05-04 14:58 | -44.96535 | -62.43499 | 36517 ft | 483 kts | 8° |
| 2026-05-04 14:59 | -44.90122 | -62.40589 | 36547 ft | 484 kts | 8° |
| 2026-05-04 15:00 | -44.80529 | -62.36249 | 36549 ft | 484 kts | 8° |
| 2026-05-04 15:00 | -44.74117 | -62.33356 | 36530 ft | 484 kts | 8° |
| 2026-05-04 15:01 | -44.64525 | -62.29041 | 36562 ft | 484 kts | 8° |
| 2026-05-04 15:01 | -44.58112 | -62.26165 | 36565 ft | 484 kts | 8° |
| 2026-05-04 15:02 | -44.51706 | -62.23299 | 36579 ft | 484 kts | 8° |
| 2026-05-04 15:02 | -44.45291 | -62.20434 | 36582 ft | 485 kts | 8° |
| 2026-05-04 15:03 | -44.38855 | -62.17567 | 36581 ft | 484 kts | 8° |
| 2026-05-04 15:03 | -44.32439 | -62.14716 | 36587 ft | 484 kts | 8° |
| 2026-05-04 15:04 | -44.26015 | -62.11868 | 36558 ft | 484 kts | 8° |
| 2026-05-04 15:04 | -44.19573 | -62.09018 | 36588 ft | 486 kts | 8° |
| 2026-05-04 15:05 | -44.13170 | -62.06192 | 36600 ft | 486 kts | 8° |
| 2026-05-04 15:05 | -44.06731 | -62.03357 | 36604 ft | 486 kts | 8° |
| 2026-05-04 15:06 | -44.00285 | -62.00525 | 36594 ft | 486 kts | 8° |
| 2026-05-04 15:07 | -43.90593 | -61.96278 | 36608 ft | 487 kts | 8° |
| 2026-05-04 15:07 | -43.84133 | -61.93457 | 36617 ft | 487 kts | 8° |
| 2026-05-04 15:08 | -43.77665 | -61.90638 | 36586 ft | 487 kts | 8° |
| 2026-05-04 15:08 | -43.71178 | -61.87817 | 36624 ft | 489 kts | 8° |
| 2026-05-04 15:09 | -43.64690 | -61.85002 | 36625 ft | 489 kts | 8° |
| 2026-05-04 15:09 | -43.58212 | -61.82197 | 36630 ft | 489 kts | 8° |
| 2026-05-04 15:10 | -43.48514 | -61.78012 | 36638 ft | 490 kts | 8° |
| 2026-05-04 15:11 | -43.38760 | -61.73815 | 36637 ft | 489 kts | 8° |
| 2026-05-04 15:11 | -43.32279 | -61.71035 | 36607 ft | 488 kts | 8° |
| 2026-05-04 15:12 | -43.25784 | -61.68254 | 36647 ft | 489 kts | 8° |
| 2026-05-04 15:12 | -43.19289 | -61.65480 | 36646 ft | 489 kts | 8° |
| 2026-05-04 15:13 | -43.12812 | -61.62719 | 36644 ft | 488 kts | 8° |
| 2026-05-04 15:13 | -43.06319 | -61.59958 | 36644 ft | 488 kts | 7° |
| 2026-05-04 15:14 | -42.99878 | -61.57223 | 36649 ft | 488 kts | 7° |
| 2026-05-04 15:14 | -42.93388 | -61.54480 | 36663 ft | 488 kts | 7° |
| 2026-05-04 15:15 | -42.86916 | -61.51747 | 36627 ft | 488 kts | 7° |
| 2026-05-04 15:15 | -42.80432 | -61.49015 | 36669 ft | 488 kts | 7° |
| 2026-05-04 15:16 | -42.70706 | -61.44928 | 36675 ft | 487 kts | 7° |
| 2026-05-04 15:17 | -42.60992 | -61.40859 | 36661 ft | 488 kts | 7° |
| 2026-05-04 15:17 | -42.51292 | -61.36809 | 36693 ft | 488 kts | 7° |
| 2026-05-04 15:18 | -42.44798 | -61.34106 | 36690 ft | 488 kts | 7° |
| 2026-05-04 15:19 | -42.35063 | -61.30063 | 36704 ft | 488 kts | 7° |
| 2026-05-04 15:19 | -42.25317 | -61.26030 | 36705 ft | 488 kts | 7° |
| 2026-05-04 15:20 | -42.18817 | -61.23347 | 36670 ft | 488 kts | 7° |
| 2026-05-04 15:20 | -42.12357 | -61.20686 | 36722 ft | 490 kts | 7° |
| 2026-05-04 15:21 | -42.05842 | -61.18009 | 36718 ft | 489 kts | 7° |
| 2026-05-04 15:22 | -41.96083 | -61.14009 | 36696 ft | 489 kts | 7° |
| 2026-05-04 15:22 | -41.86303 | -61.10012 | 36729 ft | 490 kts | 7° |
| 2026-05-04 15:23 | -41.79778 | -61.07353 | 36732 ft | 490 kts | 7° |
| 2026-05-04 15:23 | -41.73256 | -61.04702 | 36717 ft | 490 kts | 7° |
| 2026-05-04 15:24 | -41.60212 | -60.99415 | 36747 ft | 491 kts | 7° |
| 2026-05-04 15:25 | -41.53664 | -60.96769 | 36702 ft | 491 kts | 6° |
| 2026-05-04 15:26 | -41.43830 | -60.92805 | 36750 ft | 493 kts | 6° |
| 2026-05-04 15:26 | -41.33965 | -60.88843 | 36765 ft | 493 kts | 6° |
| 2026-05-04 15:27 | -41.24080 | -60.84885 | 36762 ft | 495 kts | 6° |
| 2026-05-04 15:28 | -41.14243 | -60.80958 | 36765 ft | 495 kts | 6° |
| 2026-05-04 15:29 | -41.04347 | -60.77020 | 36763 ft | 495 kts | 6° |
| 2026-05-04 15:30 | -40.81267 | -60.67884 | 36778 ft | 497 kts | 6° |
| 2026-05-04 15:31 | -40.71340 | -60.63974 | 36774 ft | 497 kts | 6° |
| 2026-05-04 15:32 | -40.54716 | -60.57453 | 36784 ft | 499 kts | 5° |
| 2026-05-04 15:34 | -40.38132 | -60.50542 | 36792 ft | 503 kts | 7° |
| 2026-05-04 15:34 | -40.28131 | -60.46311 | 36796 ft | 503 kts | 7° |
| 2026-05-04 15:35 | -40.18131 | -60.42092 | 36803 ft | 505 kts | 7° |
| 2026-05-04 15:36 | -40.08140 | -60.37891 | 36805 ft | 504 kts | 6° |
| 2026-05-04 15:36 | -40.01459 | -60.35089 | 36769 ft | 505 kts | 6° |
| 2026-05-04 15:37 | -39.94757 | -60.32284 | 36806 ft | 506 kts | 6° |
| 2026-05-04 15:37 | -39.88053 | -60.29484 | 36811 ft | 505 kts | 6° |
| 2026-05-04 15:38 | -39.81398 | -60.26709 | 36769 ft | 505 kts | 6° |
| 2026-05-04 15:38 | -39.74705 | -60.23925 | 36821 ft | 507 kts | 6° |
| 2026-05-04 15:39 | -39.67994 | -60.21139 | 36819 ft | 506 kts | 6° |
| 2026-05-04 15:40 | -39.57934 | -60.16973 | 36791 ft | 506 kts | 6° |
| 2026-05-04 15:40 | -39.51210 | -60.14196 | 36838 ft | 508 kts | 6° |
| 2026-05-04 15:41 | -39.44473 | -60.11419 | 36833 ft | 508 kts | 6° |
| 2026-05-04 15:41 | -39.37729 | -60.08645 | 36834 ft | 508 kts | 6° |
| 2026-05-04 15:42 | -39.31001 | -60.05883 | 36840 ft | 509 kts | 6° |
| 2026-05-04 15:42 | -39.24292 | -60.03134 | 36838 ft | 509 kts | 6° |
| 2026-05-04 15:43 | -39.17547 | -60.00376 | 36843 ft | 509 kts | 6° |
| 2026-05-04 15:43 | -39.10793 | -59.97620 | 36843 ft | 508 kts | 6° |
| 2026-05-04 15:44 | -39.04057 | -59.94877 | 36843 ft | 508 kts | 6° |
| 2026-05-04 15:44 | -38.97311 | -59.92135 | 36845 ft | 508 kts | 6° |
| 2026-05-04 15:45 | -38.90563 | -59.89398 | 36809 ft | 508 kts | 6° |
| 2026-05-04 15:45 | -38.83796 | -59.86659 | 36848 ft | 510 kts | 6° |
| 2026-05-04 15:46 | -38.77079 | -59.83945 | 36850 ft | 510 kts | 6° |
| 2026-05-04 15:46 | -38.70312 | -59.81217 | 36854 ft | 510 kts | 6° |
| 2026-05-04 15:47 | -38.63536 | -59.78490 | 36860 ft | 510 kts | 6° |
| 2026-05-04 15:47 | -38.56772 | -59.75774 | 36857 ft | 510 kts | 6° |
| 2026-05-04 15:48 | -38.51139 | -59.73515 | 36856 ft | 510 kts | 6° |
| 2026-05-04 15:48 | -38.39876 | -59.69010 | 36865 ft | 511 kts | 6° |
| 2026-05-04 15:49 | -38.34212 | -59.66750 | 36867 ft | 510 kts | 6° |
| 2026-05-04 15:49 | -38.27432 | -59.64054 | 36868 ft | 510 kts | 5° |
| 2026-05-04 15:50 | -38.20660 | -59.61364 | 36843 ft | 510 kts | 6° |
| 2026-05-04 15:50 | -38.13864 | -59.58670 | 36864 ft | 511 kts | 6° |
| 2026-05-04 15:51 | -38.07083 | -59.55986 | 36871 ft | 511 kts | 6° |
| 2026-05-04 15:51 | -38.00326 | -59.53318 | 36841 ft | 511 kts | 6° |
| 2026-05-04 15:52 | -37.93529 | -59.50638 | 36875 ft | 512 kts | 6° |
| 2026-05-04 15:52 | -37.86735 | -59.47966 | 36874 ft | 511 kts | 6° |
| 2026-05-04 15:53 | -37.79934 | -59.45295 | 36878 ft | 511 kts | 6° |
| 2026-05-04 15:53 | -37.73174 | -59.42646 | 36865 ft | 512 kts | 6° |
| 2026-05-04 15:54 | -37.66366 | -59.39983 | 36870 ft | 512 kts | 6° |
| 2026-05-04 15:54 | -37.59579 | -59.37334 | 36897 ft | 512 kts | 6° |
| 2026-05-04 15:55 | -37.52771 | -59.34680 | 36849 ft | 511 kts | 6° |
| 2026-05-04 15:55 | -37.45965 | -59.32034 | 36893 ft | 512 kts | 6° |
| 2026-05-04 15:56 | -37.39160 | -59.29393 | 36901 ft | 513 kts | 6° |
| 2026-05-04 15:56 | -37.32330 | -59.26747 | 36899 ft | 513 kts | 6° |
| 2026-05-04 15:57 | -37.25505 | -59.24106 | 36913 ft | 515 kts | 6° |
| 2026-05-04 15:57 | -37.18726 | -59.20929 | 36942 ft | 523 kts | 13° |
| 2026-05-04 15:58 | -37.12008 | -59.17396 | 36906 ft | 524 kts | 13° |
| 2026-05-04 15:58 | -37.05288 | -59.13851 | 36875 ft | 524 kts | 13° |
| 2026-05-04 15:59 | -36.98563 | -59.10310 | 36917 ft | 524 kts | 13° |
| 2026-05-04 15:59 | -36.91893 | -59.06805 | 36921 ft | 524 kts | 13° |
| 2026-05-04 16:00 | -36.85163 | -59.03275 | 36931 ft | 524 kts | 13° |
| 2026-05-04 16:00 | -36.78424 | -58.99747 | 36933 ft | 525 kts | 13° |
| 2026-05-04 16:01 | -36.71739 | -58.96254 | 36934 ft | 524 kts | 13° |
| 2026-05-04 16:01 | -36.65016 | -58.92747 | 36933 ft | 524 kts | 13° |
| 2026-05-04 16:02 | -36.58278 | -58.89240 | 36928 ft | 524 kts | 13° |
| 2026-05-04 16:02 | -36.51568 | -58.85754 | 35102 ft | 532 kts | 14° |
| 2026-05-04 16:03 | -36.48170 | -58.83989 | 34588 ft | 526 kts | 14° |
| 2026-05-04 16:03 | -36.44826 | -58.82256 | 34143 ft | 519 kts | 14° |
| 2026-05-04 16:03 | -36.41507 | -58.80537 | 33683 ft | 513 kts | 14° |
| 2026-05-04 16:03 | -36.38233 | -58.78844 | 33216 ft | 506 kts | 14° |
| 2026-05-04 16:04 | -36.35006 | -58.77175 | 32775 ft | 499 kts | 14° |
| 2026-05-04 16:04 | -36.28670 | -58.73904 | 31923 ft | 486 kts | 15° |
| 2026-05-04 16:04 | -36.25566 | -58.72305 | 31519 ft | 480 kts | 15° |
| 2026-05-04 16:05 | -36.22510 | -58.70730 | 31123 ft | 474 kts | 15° |
| 2026-05-04 16:05 | -36.19484 | -58.69173 | 30732 ft | 468 kts | 15° |
| 2026-05-04 16:05 | -36.13532 | -58.66114 | 29964 ft | 458 kts | 15° |
| 2026-05-04 16:06 | -36.10609 | -58.64613 | 29529 ft | 453 kts | 15° |
| 2026-05-04 16:06 | -36.02971 | -58.60698 | 28404 ft | 439 kts | 15° |
| 2026-05-04 16:07 | -35.99274 | -58.58806 | 27953 ft | 432 kts | 15° |
| 2026-05-04 16:07 | -35.91041 | -58.54599 | 26699 ft | 422 kts | 15° |
| 2026-05-04 16:08 | -35.88339 | -58.53220 | 26302 ft | 419 kts | 15° |
| 2026-05-04 16:08 | -35.80328 | -58.49138 | 25134 ft | 411 kts | 15° |
| 2026-05-04 16:09 | -35.75097 | -58.46440 | 24400 ft | 408 kts | 20° |
| 2026-05-04 16:09 | -35.70199 | -58.42863 | 23685 ft | 407 kts | 24° |
| 2026-05-04 16:10 | -35.65374 | -58.39305 | 22924 ft | 401 kts | 24° |
| 2026-05-04 16:11 | -35.58258 | -58.34066 | 21773 ft | 393 kts | 24° |
| 2026-05-04 16:11 | -35.55930 | -58.32354 | 21374 ft | 390 kts | 24° |
| 2026-05-04 16:12 | -35.49019 | -58.27279 | 20306 ft | 382 kts | 24° |
| 2026-05-04 16:12 | -35.42271 | -58.22335 | 19260 ft | 375 kts | 24° |
| 2026-05-04 16:13 | -35.37820 | -58.19079 | 18578 ft | 370 kts | 24° |
| 2026-05-04 16:13 | -35.33431 | -58.15872 | 17864 ft | 366 kts | 24° |
| 2026-05-04 16:14 | -35.29094 | -58.12707 | 17133 ft | 360 kts | 24° |
| 2026-05-04 16:14 | -35.24640 | -58.10631 | 16068 ft | 328 kts | 351° |
| 2026-05-04 16:15 | -35.17974 | -58.11303 | 14247 ft | 317 kts | 348° |
| 2026-05-04 16:16 | -35.13645 | -58.11692 | 13282 ft | 304 kts | 349° |
| 2026-05-04 16:16 | -35.07572 | -58.12224 | 11865 ft | 288 kts | 350° |
| 2026-05-04 16:17 | -35.03574 | -58.12568 | 10789 ft | 284 kts | 351° |
| 2026-05-04 16:18 | -34.97756 | -58.13067 | 9332 ft | 276 kts | 352° |
| 2026-05-04 16:18 | -34.95848 | -58.13230 | 8924 ft | 274 kts | 352° |
| 2026-05-04 16:19 | -34.90243 | -58.13708 | 8077 ft | 266 kts | 352° |
| 2026-05-04 16:19 | -34.86601 | -58.14019 | 7553 ft | 260 kts | 352° |
| 2026-05-04 16:20 | -34.81265 | -58.14473 | 6722 ft | 253 kts | 352° |
| 2026-05-04 16:20 | -34.77797 | -58.14767 | 6068 ft | 247 kts | 352° |
| 2026-05-04 16:21 | -34.72813 | -58.15189 | 5032 ft | 225 kts | 352° |
| 2026-05-04 16:22 | -34.70102 | -58.16460 | 4214 ft | 212 kts | 309° |
| 2026-05-04 16:22 | -34.67648 | -58.20607 | 3548 ft | 193 kts | 304° |
| 2026-05-04 16:23 | -34.65455 | -58.24480 | 2993 ft | 181 kts | 304° |
| 2026-05-04 16:24 | -34.62670 | -58.29466 | 2183 ft | 165 kts | 304° |
| 2026-05-04 16:25 | -34.61457 | -58.31645 | 1765 ft | 153 kts | 304° |
| 2026-05-04 16:26 | -34.59345 | -58.35409 | 1190 ft | 129 kts | 303° |
| 2026-05-04 16:26 | -34.57792 | -58.38234 | 556 ft | 137 kts | 303° |
| 2026-05-04 16:27 | -34.56741 | -58.40115 | 151 ft | 135 kts | 303° |
| 2026-05-04 16:28 | -34.55718 | -58.41929 | 27 ft | 7 kts | 346° |
| 2026-05-04 16:28 | -34.55705 | -58.41811 | 28 ft | 9 kts | 121° |
| 2026-05-04 16:29 | -34.55894 | -58.41368 | 28 ft | 19 kts | 117° |
| 2026-05-04 16:30 | -34.56062 | -58.41073 | 28 ft | 4 kts | 97° |
| 2026-05-04 16:31 | -34.56045 | -58.41016 | 28 ft | 11 kts | 120° |
| 2026-05-04 16:31 | -34.56038 | -58.40920 | 28 ft | 2 kts | 38° |
| 2026-05-04 16:32 | -34.56036 | -58.40919 | 28 ft | 0 kts | 38° |